Terminal Aerodrome Forecast
Issued by NWS Cleveland, OH

Home | Current Version | Previous Version | Text Only | Print | Product List | Glossary On
Versions: 1 2 3 4 5 6 7 8 9 10 11 12 13 14 15 16 17 18 19 20 21 22 23 24
000
FTUS41 KCLE 012300 AAA
TAFCAK
TAF AMD
KCAK 012330Z 0200/0218 VRB03KT P6SM VCTS SCT040CB
      TEMPO 0200/0202 2SM TSRA
     FM020200 VRB04KT P6SM SCT040
      TEMPO 0210/0212 5SM BR
     FM021400 12003KT P6SM VCSH SCT040 BKN060=

USA.gov is the U.S. government's official web portal to all federal, state and local government web resources and services.